Time;durP1;ratioP1;P1;durP2;ratioP2;P2;SDS_P1;SDS_P2;PMS_P1;PMS_P2;Temp;Humidity;BMP_temperature;BMP_pressure;BME280_temperature;BME280_humidity;BME280_pressure;Samples;Min_cycle;Max_cycle;Signal;HPM_P1;HPM_P2
2022/01/11 00:01:55;;;;;;;45.30;15.65;;;-0.60;99.90;;;;;;4996365;28;20404;-81
2022/01/11 00:04:28;;;;;;;43.38;16.40;;;-0.70;99.90;;;;;;4996450;28;20065;-81
2022/01/11 00:06:54;;;;;;;46.95;15.13;;;-0.70;99.90;;;;;;4995228;28;20382;-81
2022/01/11 00:09:40;;;;;;;46.03;15.63;;;-0.70;99.90;;;;;;4996148;28;20100;-81
2022/01/11 00:12:08;;;;;;;23.50;13.75;;;-0.70;99.90;;;;;;4996576;28;20046;-81
2022/01/11 00:14:35;;;;;;;29.92;13.50;;;-0.70;99.90;;;;;;4980578;28;20042;-81
2022/01/11 00:17:01;;;;;;;35.75;14.80;;;-0.60;99.90;;;;;;4995085;28;20038;-81
2022/01/11 00:19:28;;;;;;;34.65;14.30;;;-0.70;99.90;;;;;;4996712;28;20375;-81
2022/01/11 00:21:55;;;;;;;29.00;13.85;;;-0.70;99.90;;;;;;4996302;28;20052;-81
2022/01/11 00:24:33;;;;;;;32.78;15.38;;;-0.80;99.90;;;;;;4980313;28;20047;-81
2022/01/11 00:27:08;;;;;;;28.48;14.63;;;-0.80;99.90;;;;;;4997027;28;20046;-81
2022/01/11 00:29:37;;;;;;;36.15;13.80;;;-0.80;99.90;;;;;;4980120;28;20374;-81
2022/01/11 00:32:08;;;;;;;28.00;14.23;;;-0.90;99.90;;;;;;4996867;28;20520;-81
2022/01/11 00:34:40;;;;;;;28.63;14.70;;;-0.90;99.90;;;;;;4996269;28;20553;-81
2022/01/11 00:37:06;;;;;;;34.72;14.00;;;-0.90;99.90;;;;;;4995722;28;20085;-81
2022/01/11 00:39:32;;;;;;;26.75;13.52;;;-0.90;99.90;;;;;;4995059;28;20046;-81
2022/01/11 00:41:58;;;;;;;32.55;16.23;;;-0.90;99.90;;;;;;4995196;28;20042;-81
2022/01/11 00:44:23;;;;;;;26.23;13.07;;;-0.90;99.90;;;;;;4995033;28;20081;-81
2022/01/11 00:46:49;;;;;;;27.58;13.55;;;-1.00;99.90;;;;;;4980319;28;20048;-81
2022/01/11 00:49:14;;;;;;;49.28;16.92;;;-1.00;99.90;;;;;;4996704;28;20038;-81
2022/01/11 00:51:40;;;;;;;33.08;14.48;;;-1.00;99.90;;;;;;4996351;28;20084;-81
2022/01/11 00:54:06;;;;;;;35.33;13.98;;;-1.00;99.90;;;;;;4995628;28;20529;-81
2022/01/11 00:56:31;;;;;;;42.25;15.18;;;-1.00;99.90;;;;;;4994600;28;20432;-81
2022/01/11 00:58:57;;;;;;;44.65;16.45;;;-1.00;99.90;;;;;;4978923;28;20485;-81
2022/01/11 01:01:23;;;;;;;29.20;14.32;;;-1.00;99.90;;;;;;4994043;28;20166;-81
2022/01/11 01:03:49;;;;;;;32.88;14.65;;;-1.00;99.90;;;;;;4994444;28;20038;-81
2022/01/11 01:06:14;;;;;;;26.85;13.52;;;-1.10;99.90;;;;;;4976571;28;20592;-81
2022/01/11 01:08:40;;;;;;;34.22;14.38;;;-1.00;99.90;;;;;;4978385;28;20121;-81
2022/01/11 01:11:05;;;;;;;29.58;13.15;;;-1.00;99.90;;;;;;4975942;28;20540;-78
2022/01/11 01:13:31;;;;;;;41.08;15.75;;;-1.00;99.90;;;;;;4991702;28;20042;-80
2022/01/11 01:15:57;;;;;;;30.85;15.93;;;-1.00;99.90;;;;;;4991248;28;20074;-79
2022/01/11 01:18:26;;;;;;;35.92;15.57;;;-1.00;99.90;;;;;;4991517;28;20050;-79
2022/01/11 01:20:53;;;;;;;38.22;15.60;;;-1.10;99.90;;;;;;4974600;28;20034;-79
2022/01/11 01:23:20;;;;;;;40.60;15.20;;;-1.00;99.90;;;;;;4975582;28;20081;-78
2022/01/11 01:25:46;;;;;;;49.28;16.70;;;-1.00;99.90;;;;;;4974866;28;20042;-79
2022/01/11 01:28:13;;;;;;;42.13;16.35;;;-1.00;99.90;;;;;;4990388;28;20361;-79
2022/01/11 01:30:40;;;;;;;80.90;20.23;;;-1.00;99.90;;;;;;4991195;28;20125;-80
2022/01/11 01:33:06;;;;;;;58.95;17.67;;;-0.90;99.90;;;;;;4991200;28;20069;-79
2022/01/11 01:35:44;;;;;;;132.27;22.55;;;-0.90;99.90;;;;;;4991033;28;20081;-80
2022/01/11 01:38:11;;;;;;;75.88;21.05;;;-0.90;99.90;;;;;;4990083;28;20046;-80
2022/01/11 01:40:42;;;;;;;63.83;19.42;;;-0.90;99.90;;;;;;4991508;28;20483;-79
2022/01/11 01:43:10;;;;;;;51.80;17.98;;;-0.90;99.90;;;;;;4975165;28;20038;-80
2022/01/11 01:45:37;;;;;;;46.40;16.67;;;-0.90;99.90;;;;;;4990731;28;20038;-80
2022/01/11 01:48:03;;;;;;;102.57;19.77;;;-0.80;99.90;;;;;;4990466;28;20100;-79
2022/01/11 01:50:30;;;;;;;56.25;16.58;;;-0.80;99.90;;;;;;4991079;28;20042;-79
2022/01/11 01:52:57;;;;;;;76.97;17.60;;;-0.80;99.90;;;;;;4991015;28;20046;-79
2022/01/11 01:55:25;;;;;;;34.35;15.30;;;-0.80;99.90;;;;;;4990234;28;20073;-79
2022/01/11 01:57:51;;;;;;;74.40;16.75;;;-0.80;99.90;;;;;;4990749;28;20038;-79
2022/01/11 02:00:22;;;;;;;45.25;16.05;;;-0.80;99.90;;;;;;4990972;28;20478;-80
2022/01/11 02:02:48;;;;;;;61.07;16.90;;;-0.80;99.90;;;;;;4990996;28;20034;-79
2022/01/11 02:05:14;;;;;;;34.88;17.25;;;-0.80;99.90;;;;;;4973669;28;20108;-79
2022/01/11 02:07:39;;;;;;;30.55;15.65;;;-0.80;99.90;;;;;;4994889;28;20050;-79
2022/01/11 02:10:07;;;;;;;94.38;20.80;;;-0.80;99.90;;;;;;4978602;28;20039;-79
2022/01/11 02:12:33;;;;;;;72.70;18.42;;;-0.70;99.90;;;;;;4978174;28;20035;-79
2022/01/11 02:14:58;;;;;;;97.70;22.95;;;-0.70;99.90;;;;;;4994247;28;20092;-79
2022/01/11 02:17:32;;;;;;;104.88;20.40;;;-0.70;99.90;;;;;;4994498;28;20045;-79
2022/01/11 02:19:58;;;;;;;112.82;25.08;;;-0.80;99.90;;;;;;4993723;28;20117;-79
2022/01/11 02:22:24;;;;;;;108.38;21.88;;;-0.80;99.90;;;;;;4993854;28;20124;-79
2022/01/11 02:24:51;;;;;;;125.22;22.95;;;-0.80;99.90;;;;;;4978489;28;20038;-78
2022/01/11 02:27:17;;;;;;;90.50;22.17;;;-0.80;99.90;;;;;;4994174;28;20046;-80
2022/01/11 02:29:43;;;;;;;88.43;21.00;;;-0.80;99.90;;;;;;4994455;28;20042;-79
2022/01/11 02:32:08;;;;;;;76.28;18.20;;;-0.70;99.90;;;;;;4993532;28;20129;-79
2022/01/11 02:34:34;;;;;;;130.98;21.42;;;-0.70;99.90;;;;;;4978219;28;20129;-79
2022/01/11 02:36:59;;;;;;;125.85;22.65;;;-0.70;99.90;;;;;;4994216;28;20557;-79
2022/01/11 02:39:25;;;;;;;87.82;20.77;;;-0.70;99.90;;;;;;4994137;28;20045;-79
2022/01/11 02:41:54;;;;;;;109.55;23.90;;;-0.80;99.90;;;;;;4993356;28;20072;-79
2022/01/11 02:44:20;;;;;;;81.65;18.83;;;-0.70;99.90;;;;;;4994546;28;20042;-79
2022/01/11 02:46:46;;;;;;;83.72;18.35;;;-0.70;99.90;;;;;;4993816;28;20067;-79
2022/01/11 02:49:12;;;;;;;58.83;17.38;;;-0.70;99.90;;;;;;4993805;28;20076;-79
2022/01/11 02:51:38;;;;;;;61.75;17.23;;;-0.70;99.90;;;;;;4994137;28;20104;-79
2022/01/11 02:54:05;;;;;;;99.57;18.83;;;-0.70;99.90;;;;;;4994279;28;20553;-80
2022/01/11 02:56:31;;;;;;;82.35;18.50;;;-0.70;99.90;;;;;;4994048;28;20405;-79
2022/01/11 02:58:57;;;;;;;72.47;18.52;;;-0.70;99.90;;;;;;4992727;28;20050;-78
2022/01/11 03:01:22;;;;;;;82.35;16.48;;;-0.70;99.90;;;;;;4993877;28;20038;-79
2022/01/11 03:03:48;;;;;;;86.95;17.58;;;-0.70;99.90;;;;;;4994064;28;20038;-79
2022/01/11 03:06:14;;;;;;;81.82;18.58;;;-0.60;99.90;;;;;;4993573;28;20066;-79
2022/01/11 03:08:42;;;;;;;71.57;17.67;;;-0.70;99.90;;;;;;4992870;28;20038;-79
2022/01/11 03:11:09;;;;;;;87.47;20.65;;;-0.70;99.90;;;;;;4993708;28;20049;-80
2022/01/11 03:13:38;;;;;;;61.15;19.30;;;-0.60;99.90;;;;;;4993907;28;20394;-79
2022/01/11 03:16:04;;;;;;;78.55;15.82;;;-0.60;99.90;;;;;;4992949;28;20049;-79
2022/01/11 03:18:30;;;;;;;75.90;19.92;;;-0.60;99.90;;;;;;4992304;28;20053;-79
2022/01/11 03:20:56;;;;;;;74.22;18.42;;;-0.60;99.90;;;;;;4993576;28;20039;-79
2022/01/11 03:23:22;;;;;;;100.30;20.70;;;-0.60;99.90;;;;;;4994706;28;20092;-79
2022/01/11 03:25:51;;;;;;;70.82;19.23;;;-0.50;99.90;;;;;;4992660;28;20049;-79
2022/01/11 03:28:17;;;;;;;96.90;20.30;;;-0.60;99.90;;;;;;4993221;28;20049;-79
2022/01/11 03:30:43;;;;;;;80.95;16.60;;;-0.50;99.90;;;;;;4993379;28;20524;-78
2022/01/11 03:33:08;;;;;;;85.13;19.05;;;-0.50;99.90;;;;;;4993286;28;20343;-78
2022/01/11 03:35:36;;;;;;;68.30;17.50;;;-0.50;99.90;;;;;;4992504;28;20054;-79
2022/01/11 03:38:04;;;;;;;75.97;18.58;;;-0.60;99.90;;;;;;4994289;28;20038;-80
2022/01/11 03:40:30;;;;;;;72.13;19.73;;;-0.60;99.90;;;;;;4994910;28;20485;-80
2022/01/11 03:42:57;;;;;;;74.95;17.30;;;-0.60;99.90;;;;;;4994640;28;20132;-80
2022/01/11 03:45:24;;;;;;;79.03;19.10;;;-0.60;99.90;;;;;;4994175;28;20113;-80
2022/01/11 03:47:53;;;;;;;77.80;17.35;;;-0.50;99.90;;;;;;4995045;28;20397;-81
2022/01/11 03:50:19;;;;;;;79.25;18.73;;;-0.50;99.90;;;;;;4995207;28;20072;-81
2022/01/11 03:52:45;;;;;;;80.80;19.33;;;-0.60;99.90;;;;;;4994290;28;20100;-81
2022/01/11 03:55:15;;;;;;;86.03;20.13;;;-0.50;99.90;;;;;;4995227;28;20038;-81
2022/01/11 03:57:41;;;;;;;77.30;21.95;;;-0.50;99.90;;;;;;4994581;28;20046;-81
2022/01/11 04:00:13;;;;;;;86.85;21.98;;;-0.50;99.90;;;;;;4994114;28;20054;-81
2022/01/11 04:02:39;;;;;;;;;;;-0.50;99.90;;;;;;4995035;28;20035;-81
2022/01/11 04:05:06;;;;;;;60.17;18.13;;;-0.50;99.90;;;;;;4995237;28;20377;-81
2022/01/11 04:07:31;;;;;;;70.00;18.33;;;-0.50;99.90;;;;;;4994522;28;20077;-81
2022/01/11 04:09:57;;;;;;;73.45;20.30;;;-0.50;99.90;;;;;;4995125;28;20038;-81
2022/01/11 04:12:23;;;;;;;92.28;22.98;;;-0.50;99.90;;;;;;4994489;28;20046;-81
2022/01/11 04:14:50;;;;;;;73.80;19.00;;;-0.50;99.90;;;;;;4979267;28;20517;-81
2022/01/11 04:17:16;;;;;;;64.90;18.05;;;-0.40;99.90;;;;;;4994659;28;20046;-81
2022/01/11 04:19:42;;;;;;;77.85;22.40;;;-0.50;99.90;;;;;;4993486;28;20034;-81
2022/01/11 04:22:08;;;;;;;69.82;21.92;;;-0.40;99.90;;;;;;4994530;28;20034;-81
2022/01/11 04:24:33;;;;;;;62.08;18.65;;;-0.40;99.90;;;;;;4995109;28;20046;-81
2022/01/11 04:26:59;;;;;;;60.30;20.52;;;-0.40;99.90;;;;;;4994006;28;20066;-81
2022/01/11 04:29:25;;;;;;;70.60;19.60;;;-0.40;99.90;;;;;;4994076;28;20357;-81
2022/01/11 04:31:51;;;;;;;60.97;19.10;;;-0.40;99.90;;;;;;4994061;28;20077;-81
2022/01/11 04:34:17;;;;;;;62.45;20.63;;;-0.40;99.90;;;;;;4993828;28;20042;-81
2022/01/11 04:36:42;;;;;;;68.43;21.15;;;-0.40;99.90;;;;;;4993290;28;20034;-81
2022/01/11 04:39:10;;;;;;;60.95;18.33;;;-0.40;99.90;;;;;;4992965;28;20057;-81
2022/01/11 04:41:36;;;;;;;56.13;20.23;;;-0.40;99.90;;;;;;4993294;28;20069;-81
2022/01/11 04:44:03;;;;;;;56.28;18.77;;;-0.40;99.90;;;;;;4993679;28;20050;-81
2022/01/11 04:46:29;;;;;;;56.75;19.98;;;-0.30;99.90;;;;;;4991518;28;20030;-78
2022/01/11 04:48:55;;;;;;;49.30;19.25;;;-0.40;99.90;;;;;;4991818;28;20096;-77
2022/01/11 04:51:21;;;;;;;56.00;18.67;;;-0.40;99.90;;;;;;4991900;28;20046;-77
2022/01/11 04:53:48;;;;;;;44.30;18.17;;;-0.40;99.90;;;;;;4991668;28;20042;-78
2022/01/11 04:56:15;;;;;;;48.85;18.70;;;-0.40;99.90;;;;;;4991796;28;20042;-77
2022/01/11 04:58:41;;;;;;;51.20;18.95;;;-0.40;99.90;;;;;;4990702;28;20540;-78
2022/01/11 05:01:06;;;;;;;47.80;18.27;;;-0.40;99.90;;;;;;4991980;28;20056;-78
2022/01/11 05:03:32;;;;;;;52.78;18.40;;;-0.40;99.90;;;;;;4991506;28;20486;-77
2022/01/11 05:05:58;;;;;;;47.55;17.92;;;-0.40;99.90;;;;;;4975567;28;20422;-78
2022/01/11 05:08:24;;;;;;;46.30;18.42;;;-0.40;99.90;;;;;;4992610;28;20050;-77
2022/01/11 05:10:50;;;;;;;51.60;17.25;;;-0.40;99.90;;;;;;4991588;28;20120;-77
2022/01/11 05:13:17;;;;;;;54.83;18.35;;;-0.40;99.90;;;;;;4990957;28;20133;-77
2022/01/11 05:15:43;;;;;;;49.03;16.85;;;-0.40;99.90;;;;;;4991252;28;20038;-78
2022/01/11 05:18:10;;;;;;;52.25;17.83;;;-0.40;99.90;;;;;;4991286;28;20049;-78
2022/01/11 05:20:37;;;;;;;51.58;17.83;;;-0.40;99.90;;;;;;4990452;28;20482;-77
2022/01/11 05:23:03;;;;;;;55.40;17.85;;;-0.40;99.90;;;;;;4990718;28;20042;-78
2022/01/11 05:25:30;;;;;;;44.63;18.55;;;-0.40;99.90;;;;;;4989983;28;20042;-78
2022/01/11 05:27:57;;;;;;;45.92;17.75;;;-0.50;99.90;;;;;;4991281;28;20066;-77
2022/01/11 05:30:22;;;;;;;54.30;19.35;;;-0.40;99.90;;;;;;4991153;28;20405;-77
2022/01/11 05:32:48;;;;;;;47.10;19.10;;;-0.40;99.90;;;;;;4975142;28;20045;-77
2022/01/11 05:35:15;;;;;;;51.78;18.13;;;-0.40;99.90;;;;;;4991023;28;20452;-77
2022/01/11 05:37:42;;;;;;;53.40;18.88;;;-0.50;99.90;;;;;;4991194;28;20161;-78
2022/01/11 05:40:09;;;;;;;46.80;18.00;;;-0.40;99.90;;;;;;4990261;28;20082;-78
2022/01/11 05:42:35;;;;;;;49.20;18.05;;;-0.40;99.90;;;;;;4991156;28;20054;-78
2022/01/11 05:45:01;;;;;;;47.15;17.85;;;-0.40;99.90;;;;;;4990971;28;20050;-78
2022/01/11 05:47:26;;;;;;;46.55;18.67;;;-0.40;99.90;;;;;;4990864;28;20042;-78
2022/01/11 05:49:52;;;;;;;41.78;17.23;;;-0.40;99.90;;;;;;4990473;28;20049;-78
2022/01/11 05:52:18;;;;;;;45.53;16.52;;;-0.40;99.90;;;;;;4991150;28;20042;-78
2022/01/11 05:54:44;;;;;;;41.47;16.08;;;-0.40;99.90;;;;;;4991009;28;20046;-78
2022/01/11 05:57:10;;;;;;;45.42;17.10;;;-0.40;99.90;;;;;;4991275;28;20121;-78
2022/01/11 05:59:35;;;;;;;38.92;17.98;;;-0.40;99.90;;;;;;4990883;28;20039;-78
2022/01/11 06:02:01;;;;;;;40.00;16.05;;;-0.40;99.90;;;;;;4991364;28;20046;-78
2022/01/11 06:04:27;;;;;;;47.90;17.30;;;-0.40;99.90;;;;;;4990912;28;20038;-78
2022/01/11 06:06:52;;;;;;;35.70;15.75;;;-0.50;99.90;;;;;;4990092;28;20038;-78
2022/01/11 06:09:18;;;;;;;41.42;17.65;;;-0.40;99.90;;;;;;4990861;28;20042;-78
2022/01/11 06:11:44;;;;;;;46.42;17.02;;;-0.50;99.90;;;;;;4990192;28;20057;-78
2022/01/11 06:14:09;;;;;;;44.63;17.15;;;-0.50;99.90;;;;;;4992071;28;20097;-80
2022/01/11 06:16:36;;;;;;;39.55;16.65;;;-0.50;99.90;;;;;;4975734;28;20588;-80
2022/01/11 06:19:03;;;;;;;37.47;15.20;;;-0.40;99.90;;;;;;4975610;28;20074;-80
2022/01/11 06:21:29;;;;;;;37.50;14.65;;;-0.40;99.90;;;;;;4976005;28;20042;-81
2022/01/11 06:23:54;;;;;;;43.63;15.70;;;-0.40;99.90;;;;;;4992034;28;20104;-80
2022/01/11 06:26:20;;;;;;;38.90;14.45;;;-0.50;99.90;;;;;;4976947;28;20077;-80
2022/01/11 06:28:46;;;;;;;43.08;16.42;;;-0.50;99.90;;;;;;4995260;28;20476;-81
2022/01/11 06:31:12;;;;;;;31.23;13.93;;;-0.50;99.90;;;;;;4998553;28;20042;-82
2022/01/11 06:33:38;;;;;;;37.42;15.38;;;-0.50;99.90;;;;;;4997460;28;20062;-82
2022/01/11 06:36:09;;;;;;;40.75;15.95;;;-0.50;99.90;;;;;;4992440;28;20046;-83
2022/01/11 06:38:39;;;;;;;31.48;13.68;;;-0.50;99.90;;;;;;4976111;28;20054;-82
2022/01/11 06:41:04;;;;;;;42.55;14.88;;;-0.50;99.90;;;;;;4992997;28;20120;-82
2022/01/11 06:43:30;;;;;;;33.85;14.65;;;-0.50;99.90;;;;;;4991553;28;20117;-79
2022/01/11 06:45:55;;;;;;;32.25;13.80;;;-0.60;99.90;;;;;;4975099;28;20060;-80
2022/01/11 06:48:21;;;;;;;27.88;13.38;;;-0.60;99.90;;;;;;4974459;28;20041;-78
2022/01/11 06:50:47;;;;;;;36.00;15.50;;;-0.60;99.90;;;;;;4990586;28;20569;-78
2022/01/11 06:53:13;;;;;;;31.98;14.93;;;-0.60;99.90;;;;;;4991780;28;20078;-78
2022/01/11 06:55:38;;;;;;;33.53;13.32;;;-0.60;99.90;;;;;;4992368;28;20084;-79
2022/01/11 06:58:04;;;;;;;33.22;13.43;;;-0.60;99.90;;;;;;4993817;28;20529;-79
2022/01/11 07:00:29;;;;;;;27.17;11.55;;;-0.60;99.90;;;;;;4993958;28;20042;-79
2022/01/11 07:02:55;;;;;;;20.27;10.95;;;-0.60;99.90;;;;;;4994369;28;20048;-79
2022/01/11 07:05:21;;;;;;;26.63;11.10;;;-0.60;99.90;;;;;;4993612;28;20065;-79
2022/01/11 07:07:46;;;;;;;33.15;12.82;;;-0.60;99.90;;;;;;4993907;28;20038;-79
2022/01/11 07:10:12;;;;;;;26.13;11.20;;;-0.60;99.90;;;;;;4993730;28;20038;-79
2022/01/11 07:12:37;;;;;;;29.73;11.45;;;-0.60;99.90;;;;;;4993808;28;20046;-79
2022/01/11 07:15:03;;;;;;;31.98;12.48;;;-0.60;99.90;;;;;;4993745;28;20046;-80
2022/01/11 07:17:29;;;;;;;26.58;11.40;;;-0.70;99.90;;;;;;4993593;28;20154;-79
2022/01/11 07:19:54;;;;;;;26.05;11.88;;;-0.70;99.90;;;;;;4993527;28;20045;-79
2022/01/11 07:22:20;;;;;;;28.30;11.52;;;-0.70;99.90;;;;;;4993628;28;20038;-79
2022/01/11 07:24:46;;;;;;;26.10;11.18;;;-0.70;99.90;;;;;;4993545;28;20042;-79
2022/01/11 07:27:12;;;;;;;26.20;10.73;;;-0.70;99.90;;;;;;4993347;28;20035;-79
2022/01/11 07:29:37;;;;;;;26.95;10.68;;;-0.70;99.90;;;;;;4993660;28;20065;-79
2022/01/11 07:32:03;;;;;;;23.90;10.40;;;-0.80;99.90;;;;;;4993495;28;20034;-79
2022/01/11 07:34:29;;;;;;;19.88;10.10;;;-0.80;99.90;;;;;;4993614;28;20490;-78
2022/01/11 07:36:54;;;;;;;21.17;9.68;;;-0.80;99.90;;;;;;4993283;28;20053;-80
2022/01/11 07:39:20;;;;;;;19.23;9.23;;;-0.80;99.90;;;;;;4997079;28;20038;-80
2022/01/11 07:41:46;;;;;;;25.10;10.90;;;-0.80;99.90;;;;;;4996455;28;20109;-81
2022/01/11 07:44:12;;;;;;;25.15;10.23;;;-0.80;99.90;;;;;;4995724;28;20548;-77
2022/01/11 07:46:39;;;;;;;17.80;8.52;;;-0.80;99.90;;;;;;4992957;28;20093;-77
2022/01/11 07:49:06;;;;;;;24.40;9.70;;;-0.80;99.90;;;;;;4993029;28;20676;-77
2022/01/11 07:51:32;;;;;;;25.67;10.15;;;-0.80;99.90;;;;;;4993117;28;20053;-78
2022/01/11 07:53:57;;;;;;;21.50;10.10;;;-0.80;99.90;;;;;;4993293;28;20405;-77
2022/01/11 07:56:23;;;;;;;21.95;9.73;;;-0.80;99.90;;;;;;4993052;28;20046;-78
2022/01/11 07:58:48;;;;;;;24.33;11.55;;;-0.70;99.90;;;;;;4992647;28;20509;-78
2022/01/11 08:01:15;;;;;;;21.40;10.05;;;-0.70;99.90;;;;;;4992899;28;20034;-77
2022/01/11 08:03:40;;;;;;;26.40;10.27;;;-0.70;99.90;;;;;;4992366;28;20038;-78
2022/01/11 08:06:06;;;;;;;26.63;10.70;;;-0.70;99.90;;;;;;4992646;28;20038;-77
2022/01/11 08:08:31;;;;;;;28.33;12.02;;;-0.70;99.90;;;;;;4992687;28;20089;-77
2022/01/11 08:10:58;;;;;;;23.20;10.02;;;-0.70;99.90;;;;;;4992722;28;20137;-79
2022/01/11 08:13:24;;;;;;;22.83;10.32;;;-0.60;99.90;;;;;;4992802;28;20096;-78
2022/01/11 08:15:50;;;;;;;27.48;11.32;;;-0.60;99.90;;;;;;4992430;28;20046;-79
2022/01/11 08:18:15;;;;;;;28.65;11.65;;;-0.50;99.90;;;;;;4992230;28;20046;-78
2022/01/11 08:20:41;;;;;;;26.70;10.65;;;-0.50;99.90;;;;;;4992457;28;20050;-78
2022/01/11 08:23:06;;;;;;;21.67;10.07;;;-0.50;99.90;;;;;;4992542;28;20315;-79
2022/01/11 08:25:32;;;;;;;20.40;9.60;;;-0.40;99.90;;;;;;4992232;28;20109;-79
2022/01/11 08:27:59;;;;;;;27.63;10.95;;;-0.40;99.90;;;;;;4992390;28;20123;-78
2022/01/11 08:30:25;;;;;;;24.58;11.25;;;-0.40;99.90;;;;;;4992622;28;20054;-79
2022/01/11 08:32:51;;;;;;;28.52;11.60;;;-0.30;99.90;;;;;;4992221;28;20521;-79
2022/01/11 08:35:16;;;;;;;26.75;10.48;;;-0.20;99.90;;;;;;4992065;28;20520;-79
2022/01/11 08:37:42;;;;;;;28.38;11.60;;;-0.20;99.90;;;;;;4992296;28;20085;-79
2022/01/11 08:40:08;;;;;;;30.13;12.50;;;-0.10;99.90;;;;;;4992323;28;20125;-79
2022/01/11 08:42:33;;;;;;;30.77;12.75;;;-0.10;99.90;;;;;;4992087;28;20042;-79
2022/01/11 08:45:00;;;;;;;29.58;11.05;;;-0.10;99.90;;;;;;4991950;28;20042;-79
2022/01/11 08:47:30;;;;;;;26.42;11.55;;;0.00;99.90;;;;;;4991871;28;20042;-80
2022/01/11 08:49:57;;;;;;;29.20;11.50;;;0.00;99.90;;;;;;4992088;28;20038;-79
2022/01/11 08:52:23;;;;;;;30.63;12.70;;;0.10;99.90;;;;;;4991956;28;20050;-79
2022/01/11 08:54:49;;;;;;;24.15;10.98;;;0.10;99.90;;;;;;4991891;28;20511;-79
2022/01/11 08:57:19;;;;;;;28.83;11.60;;;0.20;99.90;;;;;;4991656;28;20170;-79
2022/01/11 08:59:45;;;;;;;35.22;11.10;;;0.20;99.90;;;;;;4991513;28;20117;-80
2022/01/11 09:02:11;;;;;;;27.55;11.95;;;0.30;99.90;;;;;;4991783;28;20046;-80
2022/01/11 09:04:36;;;;;;;26.17;11.00;;;0.30;99.90;;;;;;4991755;28;20054;-80
2022/01/11 09:07:02;;;;;;;24.40;12.75;;;0.40;99.90;;;;;;4975693;28;20043;-80
2022/01/11 09:09:31;;;;;;;30.42;11.98;;;0.50;99.90;;;;;;4991594;28;20049;-79
2022/01/11 09:11:57;;;;;;;23.98;10.73;;;0.60;99.90;;;;;;4991687;28;20125;-79
2022/01/11 09:14:23;;;;;;;26.33;11.55;;;0.70;99.90;;;;;;4991878;28;20382;-79
2022/01/11 09:16:49;;;;;;;24.55;10.80;;;0.70;99.90;;;;;;4990673;28;20049;-79
2022/01/11 09:19:18;;;;;;;30.48;12.77;;;0.70;99.90;;;;;;4991424;28;20093;-79
2022/01/11 09:21:44;;;;;;;25.95;11.25;;;0.80;99.90;;;;;;4991502;28;20049;-79
2022/01/11 09:24:11;;;;;;;28.13;11.63;;;0.80;99.90;;;;;;4991512;28;20038;-80
2022/01/11 09:26:38;;;;;;;30.05;12.43;;;0.80;99.90;;;;;;4991507;28;20064;-80
2022/01/11 09:29:04;;;;;;;20.10;9.13;;;0.90;99.90;;;;;;4991605;28;20374;-79
2022/01/11 09:31:30;;;;;;;23.48;11.05;;;1.00;99.90;;;;;;4991388;28;20128;-79
2022/01/11 09:33:55;;;;;;;26.85;11.55;;;1.10;99.90;;;;;;4991436;28;20077;-75
2022/01/11 09:36:22;;;;;;;23.48;10.48;;;1.10;99.90;;;;;;4991142;28;20053;-78
2022/01/11 09:38:48;;;;;;;20.92;10.57;;;1.20;99.90;;;;;;4991163;28;20130;-78
2022/01/11 09:41:14;;;;;;;22.30;10.63;;;1.20;99.90;;;;;;4991576;28;20121;-78
2022/01/11 09:43:39;;;;;;;25.77;11.43;;;1.20;99.90;;;;;;4991220;28;20105;-77
2022/01/11 09:46:05;;;;;;;21.55;10.20;;;1.10;99.90;;;;;;4990970;28;20046;-78
2022/01/11 09:48:32;;;;;;;27.15;11.82;;;1.00;99.90;;;;;;4993369;28;20050;-81
2022/01/11 09:50:59;;;;;;;27.17;11.77;;;1.00;99.90;;;;;;4995609;28;20073;-81
2022/01/11 09:53:25;;;;;;;23.48;11.18;;;0.90;99.90;;;;;;4979361;28;20170;-81
2022/01/11 09:55:52;;;;;;;26.80;11.23;;;1.00;99.90;;;;;;4996621;28;20038;-81
2022/01/11 09:58:18;;;;;;;22.00;9.88;;;1.00;99.90;;;;;;4979779;28;20059;-81
2022/01/11 10:00:44;;;;;;;27.17;12.20;;;1.00;99.90;;;;;;4995082;28;20042;-81
2022/01/11 10:03:09;;;;;;;25.40;11.15;;;1.00;99.90;;;;;;4997834;28;20034;-81
2022/01/11 10:05:37;;;;;;;26.58;11.07;;;1.00;99.90;;;;;;4995278;28;20505;-81
2022/01/11 10:08:23;;;;;;;25.10;11.70;;;0.90;99.90;;;;;;4995995;28;20158;-81
2022/01/11 10:10:49;;;;;;;26.45;11.52;;;0.90;99.90;;;;;;4979096;28;20409;-81
2022/01/11 10:13:36;;;;;;;28.80;11.88;;;0.90;99.90;;;;;;4995072;28;20050;-80
2022/01/11 10:16:37;;;;;;;24.92;10.95;;;0.90;99.90;;;;;;4974956;28;20034;-80
2022/01/11 10:19:03;;;;;;;24.40;11.60;;;0.80;99.90;;;;;;4954165;28;20135;-79
2022/01/11 10:21:43;;;;;;;28.60;11.65;;;0.80;99.90;;;;;;4982843;28;20458;-79
2022/01/11 10:24:25;;;;;;;24.73;11.10;;;0.90;99.90;;;;;;4990938;28;20085;-80
2022/01/11 10:26:53;;;;;;;27.95;10.70;;;0.90;99.90;;;;;;4975223;28;20044;-79
2022/01/11 10:29:36;;;;;;;26.98;10.98;;;1.00;99.90;;;;;;4994413;28;20052;-79
2022/01/11 10:32:12;;;;;;;22.17;10.60;;;1.00;99.90;;;;;;4994614;28;20034;-80
2022/01/11 10:34:38;;;;;;;24.08;11.15;;;1.00;99.90;;;;;;4994837;28;20411;-79
2022/01/11 10:37:06;;;;;;;27.67;11.38;;;1.00;99.90;;;;;;4994590;28;20763;-79
2022/01/11 10:39:35;;;;;;;23.17;10.55;;;1.10;99.90;;;;;;4994246;28;20034;-80
2022/01/11 10:42:01;;;;;;;23.15;11.00;;;1.10;99.90;;;;;;4995588;28;20081;-80
2022/01/11 10:44:47;;;;;;;25.00;11.25;;;1.10;99.90;;;;;;4994299;28;20030;-80
2022/01/11 10:47:19;;;;;;;26.67;11.20;;;1.20;99.90;;;;;;4994136;28;20050;-80
2022/01/11 10:49:45;;;;;;;33.83;11.60;;;1.20;99.90;;;;;;4995217;28;20050;-81
2022/01/11 10:52:15;;;;;;;27.20;11.07;;;1.20;99.90;;;;;;4995700;28;20046;-81
2022/01/11 10:54:44;;;;;;;24.10;10.52;;;1.30;99.90;;;;;;4994156;28;20038;-78
2022/01/11 10:57:20;;;;;;;24.13;11.65;;;1.30;99.90;;;;;;4993315;28;20498;-77
2022/01/11 11:00:16;;;;;;;31.63;10.98;;;1.30;99.90;;;;;;4994023;28;20113;-78
2022/01/11 11:02:43;;;;;;;24.92;11.13;;;1.30;99.90;;;;;;4994003;28;20045;-78
2022/01/11 11:05:35;;;;;;;29.58;10.85;;;1.30;99.90;;;;;;4993780;28;20045;-78
2022/01/11 11:08:03;;;;;;;24.77;10.60;;;1.30;99.90;;;;;;4992105;28;20054;-78
2022/01/11 11:10:41;;;;;;;35.13;12.43;;;1.30;99.90;;;;;;4993929;28;20050;-78
2022/01/11 11:13:10;;;;;;;29.73;11.63;;;1.40;99.90;;;;;;4994027;28;20068;-78
2022/01/11 11:15:40;;;;;;;24.00;10.73;;;1.40;99.90;;;;;;4993534;28;20050;-78
2022/01/11 11:18:21;;;;;;;30.35;12.75;;;1.50;99.90;;;;;;4993552;28;20050;-78
2022/01/11 11:20:46;;;;;;;29.60;12.15;;;1.60;99.90;;;;;;4993762;28;20050;-78
2022/01/11 11:23:12;;;;;;;25.20;10.80;;;1.70;99.90;;;;;;4994965;28;20130;-78
2022/01/11 11:25:40;;;;;;;26.70;10.38;;;1.80;99.90;;;;;;4993297;28;20093;-78
2022/01/11 11:28:05;;;;;;;27.65;10.95;;;1.80;99.90;;;;;;4993457;28;20049;-78
2022/01/11 11:30:31;;;;;;;28.30;10.82;;;1.80;99.90;;;;;;4993637;28;20100;-78
2022/01/11 11:32:57;;;;;;;29.90;11.27;;;1.70;99.90;;;;;;4993466;28;20050;-78
2022/01/11 11:35:23;;;;;;;28.42;11.55;;;1.70;99.90;;;;;;4993503;28;20053;-78
2022/01/11 11:38:04;;;;;;;29.40;10.43;;;1.60;99.90;;;;;;4993487;28;20050;-77
2022/01/11 11:40:31;;;;;;;24.67;10.68;;;1.60;99.90;;;;;;4993011;28;20114;-77
2022/01/11 11:43:00;;;;;;;25.15;10.40;;;1.60;99.90;;;;;;4993213;28;20560;-77
2022/01/11 11:45:38;;;;;;;25.75;10.10;;;1.60;99.90;;;;;;4992963;28;20050;-77
2022/01/11 11:48:09;;;;;;;29.83;11.18;;;1.60;99.90;;;;;;4993607;28;20571;-77
2022/01/11 11:50:57;;;;;;;29.67;11.32;;;1.70;99.90;;;;;;4993618;28;20079;-77
2022/01/11 11:53:32;;;;;;;28.65;11.60;;;1.80;99.90;;;;;;4994439;28;20034;-77
2022/01/11 11:56:22;;;;;;;24.98;10.10;;;1.90;99.90;;;;;;4992794;28;20441;-77
2022/01/11 11:58:55;;;;;;;31.90;10.52;;;2.10;99.90;;;;;;4987584;28;20061;-77
2022/01/11 12:01:42;;;;;;;29.75;11.13;;;2.20;99.90;;;;;;4992949;28;20050;-77
2022/01/11 12:04:16;;;;;;;28.50;10.65;;;2.30;99.90;;;;;;4992862;28;20045;-77
2022/01/11 12:06:44;;;;;;;31.15;11.38;;;2.30;99.90;;;;;;4992608;28;20043;-77
2022/01/11 12:09:17;;;;;;;26.50;11.10;;;2.40;99.90;;;;;;4992741;28;20057;-77
2022/01/11 12:11:47;;;;;;;29.10;12.00;;;2.50;99.90;;;;;;4992819;28;20070;-77
2022/01/11 12:14:35;;;;;;;29.05;10.93;;;2.60;99.90;;;;;;4992649;28;20046;-77
2022/01/11 12:17:10;;;;;;;25.85;10.10;;;2.80;99.90;;;;;;4993042;28;20050;-79
2022/01/11 12:19:44;;;;;;;25.42;10.70;;;2.90;99.90;;;;;;4976564;28;20069;-79
2022/01/11 12:22:10;;;;;;;21.38;9.00;;;3.00;99.90;;;;;;4992865;28;20401;-79
2022/01/11 12:24:38;;;;;;;24.40;9.70;;;3.10;99.90;;;;;;4992794;28;20034;-80
2022/01/11 12:27:06;;;;;;;29.52;10.75;;;3.20;99.90;;;;;;4992252;28;20046;-77
2022/01/11 12:29:31;;;;;;;21.48;8.63;;;3.30;99.90;;;;;;4993686;28;20153;-77
2022/01/11 12:32:08;;;;;;;31.55;11.63;;;3.40;99.90;;;;;;4993618;28;20042;-77
2022/01/11 12:34:55;;;;;;;25.55;10.73;;;3.50;99.90;;;;;;4992491;28;20042;-77